Time;durP1;ratioP1;P1;durP2;ratioP2;P2;SDS_P1;SDS_P2;PMS_P1;PMS_P2;Temp;Humidity;BMP_temperature;BMP_pressure;BME280_temperature;BME280_humidity;BME280_pressure;Samples;Min_cycle;Max_cycle;Signal;HPM_P1;HPM_P2
2022/07/14 00:00:59;;;;;;;1.10;1.00;;;19.10;61.20;;;19.53;47.16;95436.41;5046347;28;20930;-62
2022/07/14 00:03:27;;;;;;;3.20;1.13;;;19.10;60.10;;;19.52;47.15;95431.25;5046449;28;20455;-60
2022/07/14 00:05:54;;;;;;;1.80;0.90;;;19.10;60.30;;;19.51;47.07;95426.91;5046239;28;20491;-61
2022/07/14 00:08:22;;;;;;;3.43;0.93;;;19.10;60.70;;;19.53;47.31;95427.56;5043766;28;20509;-59
2022/07/14 00:10:49;;;;;;;2.90;1.03;;;19.10;61.10;;;19.54;47.82;95431.88;5046344;28;21041;-59
2022/07/14 00:13:16;;;;;;;3.80;0.80;;;19.10;61.30;;;19.52;47.64;95436.59;5046064;28;20460;-60
2022/07/14 00:15:43;;;;;;;1.83;1.10;;;19.10;61.70;;;19.52;48.08;95436.59;5045901;28;20463;-61
2022/07/14 00:18:10;;;;;;;1.00;0.70;;;19.10;62.00;;;19.51;47.81;95434.91;5043048;28;20448;-60
2022/07/14 00:20:39;;;;;;;1.10;1.00;;;19.10;61.10;;;19.49;47.32;95436.94;5045862;28;21084;-62
2022/07/14 00:23:06;;;;;;;1.57;1.20;;;19.00;61.10;;;19.47;47.44;95436.28;5046736;28;20892;-61
2022/07/14 00:25:34;;;;;;;3.33;1.37;;;19.00;61.50;;;19.45;47.83;95435.66;5042391;28;20906;-58
2022/07/14 00:28:01;;;;;;;2.63;1.40;;;19.00;62.00;;;19.43;47.45;95435.81;5045838;28;20456;-61
2022/07/14 00:30:28;;;;;;;4.20;1.00;;;19.00;61.00;;;19.40;47.59;95432.69;5045724;28;20537;-59
2022/07/14 00:32:55;;;;;;;2.03;0.90;;;18.90;61.60;;;19.39;47.92;95436.38;5046329;28;20525;-59
2022/07/14 00:35:22;;;;;;;2.90;1.00;;;19.00;62.00;;;19.35;47.86;95434.06;5045504;28;20506;-59
2022/07/14 00:37:51;;;;;;;1.33;1.17;;;19.00;62.20;;;19.33;48.48;95438.75;5045945;28;20855;-60
2022/07/14 00:40:18;;;;;;;6.10;0.90;;;18.90;62.40;;;19.31;48.53;95435.41;5042972;28;20448;-59
2022/07/14 00:42:48;;;;;;;1.77;0.90;;;18.80;62.40;;;19.28;48.43;95435.78;5045902;28;20837;-59
2022/07/14 00:45:17;;;;;;;1.73;1.50;;;18.80;62.20;;;19.25;48.75;95435.31;5043784;28;20547;-60
2022/07/14 00:47:45;;;;;;;11.73;1.83;;;18.80;62.50;;;19.23;48.72;95432.00;5045085;28;20530;-60
2022/07/14 00:50:13;;;;;;;1.40;1.30;;;18.80;63.20;;;19.19;49.17;95436.03;5045290;28;20459;-59
2022/07/14 00:52:41;;;;;;;21.10;1.10;;;18.80;63.20;;;19.15;49.22;95436.41;5043059;28;20889;-59
2022/07/14 00:55:10;;;;;;;4.53;1.30;;;18.70;63.00;;;19.12;49.06;95442.09;5045497;28;20505;-59
2022/07/14 00:57:37;;;;;;;1.60;1.50;;;18.70;63.40;;;19.08;49.37;95432.78;5045510;28;21085;-60
2022/07/14 01:00:06;;;;;;;5.53;1.63;;;18.70;63.80;;;19.06;49.12;95437.47;5044921;28;20451;-61
2022/07/14 01:02:34;;;;;;;5.03;0.90;;;18.70;64.20;;;19.04;49.60;95422.66;5044589;28;20825;-58
2022/07/14 01:05:01;;;;;;;2.53;1.20;;;18.60;64.00;;;19.02;49.56;95424.66;5045461;28;20530;-60
2022/07/14 01:07:28;;;;;;;2.40;1.10;;;18.60;64.20;;;19.00;49.61;95427.50;5045002;28;20495;-59
2022/07/14 01:09:55;;;;;;;1.83;1.00;;;18.60;64.50;;;18.97;49.47;95426.03;5044882;28;20532;-60
2022/07/14 01:12:24;;;;;;;1.10;1.00;;;18.50;64.20;;;18.96;49.87;95432.38;5045160;28;20468;-58
2022/07/14 01:14:51;;;;;;;1.27;1.17;;;18.50;64.80;;;18.94;50.11;95430.91;5044846;28;20980;-60
2022/07/14 01:17:18;;;;;;;6.37;1.77;;;18.50;65.00;;;18.92;50.20;95432.91;5043703;28;20523;-60
2022/07/14 01:19:48;;;;;;;1.30;1.20;;;18.50;65.10;;;18.88;49.78;95429.75;5044742;28;20968;-60
2022/07/14 01:22:16;;;;;;;2.90;1.70;;;18.40;65.00;;;18.86;50.33;95428.28;5042362;28;20512;-59
2022/07/14 01:24:44;;;;;;;2.60;1.30;;;18.40;65.30;;;18.82;50.78;95427.78;5047683;28;20456;-61
2022/07/14 01:27:11;;;;;;;2.90;1.37;;;18.40;65.70;;;18.78;50.25;95429.16;5048317;28;20499;-60
2022/07/14 01:29:39;;;;;;;6.43;1.67;;;18.40;66.00;;;18.75;50.48;95424.16;5044805;28;20885;-60
2022/07/14 01:32:06;;;;;;;1.90;1.80;;;18.30;66.10;;;18.73;50.98;95420.84;5044993;28;20471;-60
2022/07/14 01:34:33;;;;;;;5.03;1.70;;;18.30;66.40;;;18.70;51.18;95421.19;5045406;28;20711;-58
2022/07/14 01:37:00;;;;;;;1.70;1.60;;;18.30;66.40;;;18.68;50.55;95418.69;5044948;28;20479;-58
2022/07/14 01:39:29;;;;;;;2.40;1.47;;;18.30;66.30;;;18.61;50.47;95423.09;5048372;28;20460;-59
2022/07/14 01:41:56;;;;;;;1.73;1.57;;;18.20;66.20;;;18.50;50.34;95419.00;5048837;28;20528;-58
2022/07/14 01:44:23;;;;;;;1.63;1.23;;;18.10;65.70;;;18.38;50.62;95418.53;5048964;28;20460;-59
2022/07/14 01:46:51;;;;;;;2.10;1.90;;;18.00;66.00;;;18.29;51.08;95419.59;5048318;28;20548;-60
2022/07/14 01:49:18;;;;;;;3.87;1.57;;;17.90;66.70;;;18.19;51.26;95414.50;5048396;28;20462;-58
2022/07/14 01:51:45;;;;;;;4.20;1.20;;;17.90;66.80;;;18.10;50.98;95411.03;5048557;28;20494;-60
2022/07/14 01:54:12;;;;;;;1.77;1.50;;;17.80;66.50;;;18.02;51.78;95415.56;5048640;28;20451;-59
2022/07/14 01:56:41;;;;;;;2.00;1.57;;;17.70;67.30;;;17.96;51.73;95409.09;5048746;28;20471;-57
2022/07/14 01:59:09;;;;;;;2.50;1.17;;;17.60;67.80;;;17.92;52.07;95419.25;5048177;28;20950;-60
2022/07/14 02:01:42;;;;;;;2.10;1.40;;;17.60;68.60;;;17.90;52.26;95410.59;5048151;28;20555;-60
2022/07/14 02:04:12;;;;;;;3.57;1.80;;;17.50;68.80;;;17.89;52.42;95416.94;5047656;28;20466;-59
2022/07/14 02:06:42;;;;;;;3.43;1.23;;;17.50;68.70;;;17.87;52.11;95415.41;5045860;28;21019;-57
2022/07/14 02:09:09;;;;;;;1.33;1.23;;;17.50;68.80;;;17.86;52.38;95413.75;5048433;28;20968;-59
2022/07/14 02:14:23;;;;;;;3.27;1.43;;;17.40;69.00;;;17.82;52.78;95415.94;5048273;28;20550;-57
2022/07/14 02:16:50;;;;;;;1.40;1.30;;;17.40;69.00;;;17.80;52.58;95417.94;5048107;28;20471;-58
2022/07/14 02:19:17;;;;;;;2.77;1.30;;;17.40;69.00;;;17.78;52.72;95417.25;5048216;28;20452;-59
2022/07/14 02:21:46;;;;;;;1.83;1.30;;;17.40;69.10;;;17.75;52.77;95422.94;5047017;28;20472;-60
2022/07/14 02:24:14;;;;;;;1.40;1.30;;;17.40;69.30;;;17.73;52.24;95424.94;5047987;28;20450;-60
2022/07/14 02:26:42;;;;;;;2.40;1.53;;;17.40;69.20;;;17.69;52.56;95424.47;5047701;28;20809;-57
2022/07/14 02:29:09;;;;;;;4.23;2.00;;;17.30;69.60;;;17.67;52.88;95422.97;5047275;28;20455;-59
2022/07/14 02:31:37;;;;;;;4.87;1.60;;;17.30;69.80;;;17.64;53.24;95431.28;5047248;28;21000;-60
2022/07/14 02:34:05;;;;;;;1.60;1.40;;;17.30;70.10;;;17.61;52.80;95440.41;5047848;28;20452;-59
2022/07/14 02:36:32;;;;;;;1.40;1.30;;;17.20;70.30;;;17.58;52.88;95431.94;5045791;28;20691;-60
2022/07/14 02:38:59;;;;;;;2.77;1.50;;;17.20;70.30;;;17.55;53.41;95433.13;5047639;28;20524;-60
2022/07/14 02:41:26;;;;;;;5.33;1.50;;;17.20;70.30;;;17.51;53.35;95429.16;5047537;28;20479;-60
2022/07/14 02:43:54;;;;;;;1.50;1.40;;;17.10;70.20;;;17.48;53.69;95429.50;5047743;28;20454;-61
2022/07/14 02:46:21;;;;;;;1.40;1.30;;;17.10;70.80;;;17.46;53.29;95431.47;5046612;28;20480;-57
2022/07/14 02:48:50;;;;;;;3.80;1.67;;;17.10;70.90;;;17.43;53.40;95430.00;5047139;28;20501;-59
2022/07/14 02:51:17;;;;;;;1.47;1.37;;;17.00;71.00;;;17.43;53.57;95429.16;5044994;28;20472;-60
2022/07/14 02:53:44;;;;;;;2.40;1.33;;;17.00;71.10;;;17.39;53.54;95432.13;5047503;28;20979;-57
2022/07/14 02:56:12;;;;;;;1.53;1.43;;;17.00;71.20;;;17.38;53.67;95438.47;5047706;28;20534;-60
2022/07/14 02:58:39;;;;;;;8.17;1.90;;;17.00;71.30;;;17.36;53.37;95444.94;5047019;28;20460;-60
2022/07/14 03:01:07;;;;;;;6.83;1.30;;;17.00;71.20;;;17.33;53.57;95434.66;5047656;28;20479;-58
2022/07/14 03:03:35;;;;;;;3.00;1.10;;;17.00;71.50;;;17.31;53.76;95440.13;5047014;28;20681;-57
2022/07/14 03:06:10;;;;;;;5.37;1.50;;;16.90;71.60;;;17.29;54.14;95439.47;5046993;28;20931;-61
2022/07/14 03:08:38;;;;;;;5.27;1.87;;;16.90;72.00;;;17.27;54.03;95438.78;5047410;28;20443;-59
2022/07/14 03:11:07;;;;;;;3.87;1.67;;;16.90;72.30;;;17.25;54.31;95439.97;5048060;28;20467;-60
2022/07/14 03:13:35;;;;;;;1.50;1.30;;;16.90;72.40;;;17.24;54.25;95448.94;5046711;28;20451;-57
2022/07/14 03:16:02;;;;;;;1.87;1.73;;;16.80;73.10;;;17.22;54.19;95453.59;5044927;28;20472;-61
2022/07/14 03:18:29;;;;;;;5.87;1.93;;;16.80;72.20;;;17.20;53.68;95451.13;5046842;28;20452;-58
2022/07/14 03:20:56;;;;;;;4.67;1.97;;;16.80;71.80;;;17.17;53.81;95449.59;5046763;28;20467;-61
2022/07/14 03:23:25;;;;;;;2.70;1.77;;;16.80;71.70;;;17.15;53.85;95456.94;5046803;28;20468;-59
2022/07/14 03:25:52;;;;;;;5.73;2.13;;;16.70;72.00;;;17.17;53.95;95457.59;5047018;28;20494;-59
2022/07/14 03:28:19;;;;;;;1.70;1.33;;;16.80;72.40;;;17.18;54.21;95469.88;5046529;28;21562;-59
2022/07/14 03:30:47;;;;;;;2.50;2.03;;;16.80;72.50;;;17.21;54.08;95463.38;5046651;28;20903;-59
2022/07/14 03:33:14;;;;;;;2.20;2.00;;;16.80;72.50;;;17.22;53.63;95465.06;5046408;28;20501;-58
2022/07/14 03:35:42;;;;;;;3.97;1.77;;;16.80;72.50;;;17.24;54.15;95470.22;5046478;28;20996;-59
2022/07/14 03:38:09;;;;;;;5.80;1.33;;;16.80;72.70;;;17.26;54.09;95468.22;5046820;28;20464;-60
2022/07/14 03:40:37;;;;;;;3.00;1.60;;;16.90;72.70;;;17.29;54.13;95475.84;5046106;28;20468;-59
2022/07/14 03:43:05;;;;;;;3.30;2.10;;;16.90;72.70;;;17.31;53.82;95465.91;5045475;28;20452;-60
2022/07/14 03:45:33;;;;;;;4.10;2.70;;;16.90;72.60;;;17.35;53.57;95475.19;5044955;28;20545;-59
2022/07/14 03:48:09;;;;;;;1.80;1.70;;;17.00;72.50;;;17.39;53.82;95477.34;5043616;28;20505;-59
2022/07/14 03:50:37;;;;;;;6.23;1.77;;;17.00;72.50;;;17.41;53.89;95473.69;5046945;28;20495;-59
2022/07/14 03:53:05;;;;;;;2.23;2.03;;;17.00;72.50;;;17.46;53.81;95472.22;5046578;28;20974;-60
2022/07/14 03:55:32;;;;;;;4.67;1.90;;;17.10;72.50;;;17.44;53.24;95466.22;5046605;28;20538;-58
2022/07/14 03:58:01;;;;;;;3.43;1.50;;;17.10;71.80;;;17.37;53.19;95466.06;5045817;28;20455;-60
2022/07/14 04:00:28;;;;;;;4.27;1.77;;;17.00;71.30;;;17.30;53.05;95472.22;5046103;28;21089;-59
2022/07/14 04:02:55;;;;;;;1.30;1.20;;;16.90;71.20;;;17.20;53.46;95475.84;5045135;28;20456;-59
2022/07/14 04:05:23;;;;;;;6.03;1.47;;;16.90;71.40;;;17.14;53.58;95473.03;5046257;28;21054;-59
2022/07/14 04:07:50;;;;;;;2.67;2.40;;;16.80;71.90;;;17.12;53.72;95475.03;5046460;28;20536;-60
2022/07/14 04:10:18;;;;;;;1.53;1.43;;;16.80;72.70;;;17.13;53.73;95477.50;5046604;28;20836;-60
2022/07/14 04:12:45;;;;;;;1.70;1.60;;;16.80;72.50;;;17.14;54.06;95489.00;5042415;28;20451;-59
2022/07/14 04:15:14;;;;;;;12.13;2.10;;;16.80;73.00;;;17.17;53.89;95489.47;5046186;28;20510;-59
2022/07/14 04:17:41;;;;;;;2.70;1.77;;;16.80;72.90;;;17.22;54.12;95486.31;5045825;28;20511;-59
2022/07/14 04:20:10;;;;;;;2.47;1.80;;;16.80;73.00;;;17.27;54.05;95489.31;5046638;28;20511;-60
2022/07/14 04:22:38;;;;;;;5.97;1.83;;;16.90;72.70;;;17.30;53.90;95488.97;5045637;28;20451;-61
2022/07/14 04:25:06;;;;;;;3.00;1.77;;;16.90;72.70;;;17.31;53.78;95495.97;5045841;28;20543;-59
2022/07/14 04:27:33;;;;;;;3.00;1.70;;;16.90;73.00;;;17.33;54.06;95498.47;5045309;28;20607;-60
2022/07/14 04:30:00;;;;;;;1.60;1.50;;;16.90;72.80;;;17.31;54.10;95488.00;5046017;28;20459;-59
2022/07/14 04:32:30;;;;;;;1.40;1.20;;;17.00;73.10;;;17.33;53.79;95488.66;5044078;28;20455;-58
2022/07/14 04:34:58;;;;;;;11.60;1.70;;;16.90;72.50;;;17.30;53.66;95493.47;5045526;28;20456;-61
2022/07/14 04:37:26;;;;;;;1.60;1.50;;;17.00;72.70;;;17.26;53.44;95493.00;5045466;28;20888;-59
2022/07/14 04:39:53;;;;;;;1.60;1.50;;;16.90;72.50;;;17.24;53.59;95491.47;5042161;28;21029;-60
2022/07/14 04:42:21;;;;;;;3.70;2.07;;;16.90;72.60;;;17.21;53.79;95500.59;5045118;28;20475;-60
2022/07/14 04:44:48;;;;;;;1.73;1.60;;;16.90;72.80;;;17.22;54.13;95501.47;5043988;28;20956;-60
2022/07/14 04:47:16;;;;;;;6.90;1.70;;;16.80;73.10;;;17.24;54.33;95499.47;5043386;28;20514;-59
2022/07/14 04:52:29;;;;;;;2.87;2.20;;;16.90;73.70;;;17.31;54.21;95500.47;5045026;28;20450;-59
2022/07/14 04:54:56;;;;;;;2.33;1.60;;;16.90;73.90;;;17.33;53.92;95507.25;5045218;28;20456;-58
2022/07/14 04:57:24;;;;;;;5.90;2.00;;;16.90;73.30;;;17.35;53.58;95507.09;5044493;28;20484;-58
2022/07/14 04:59:51;;;;;;;2.50;1.97;;;17.00;73.30;;;17.33;53.97;95506.44;5044817;28;20547;-60
2022/07/14 05:02:18;;;;;;;2.73;2.10;;;17.00;73.00;;;17.32;53.88;95515.41;5043661;28;20471;-59
2022/07/14 05:04:47;;;;;;;5.57;1.70;;;16.90;72.80;;;17.30;53.67;95514.75;5044919;28;20464;-59
2022/07/14 05:07:14;;;;;;;1.83;1.60;;;16.90;72.70;;;17.29;53.93;95511.28;5044328;28;20510;-59
2022/07/14 05:09:42;;;;;;;6.73;1.83;;;16.90;72.90;;;17.30;54.05;95515.56;5045333;28;20460;-61
2022/07/14 05:12:11;;;;;;;6.43;1.60;;;16.90;73.30;;;17.34;54.30;95510.78;5044529;28;20517;-59
2022/07/14 05:14:39;;;;;;;5.67;2.00;;;16.90;73.70;;;17.41;53.99;95510.94;5045382;28;20456;-60
2022/07/14 05:17:06;;;;;;;11.00;1.60;;;17.00;74.00;;;17.48;54.22;95502.13;5044918;28;20549;-58
2022/07/14 05:19:33;;;;;;;3.53;2.03;;;17.10;74.50;;;17.56;54.04;95503.94;5044984;28;20451;-62
2022/07/14 05:22:02;;;;;;;3.83;1.87;;;17.20;73.90;;;17.66;53.96;95499.28;5045043;28;20506;-59
2022/07/14 05:24:29;;;;;;;3.67;1.80;;;17.20;74.30;;;17.77;53.69;95499.91;5045153;28;20905;-58
2022/07/14 05:26:58;;;;;;;6.30;2.30;;;17.30;73.70;;;17.89;53.42;95504.78;5044186;28;20470;-60
2022/07/14 05:29:29;;;;;;;4.30;1.97;;;17.40;73.40;;;18.05;53.46;95509.22;5042826;28;20501;-61
2022/07/14 05:31:58;;;;;;;5.50;2.30;;;17.60;73.00;;;18.21;53.88;95513.66;5043782;28;21065;-59
2022/07/14 05:34:25;;;;;;;15.13;2.43;;;17.70;74.10;;;18.43;53.89;95508.59;5044819;28;20463;-60
2022/07/14 05:36:52;;;;;;;4.03;2.27;;;17.90;75.30;;;18.67;53.33;95512.13;5044829;28;20475;-60
2022/07/14 05:39:21;;;;;;;4.57;2.60;;;18.10;73.90;;;18.89;52.89;95500.72;5043978;28;20452;-60
2022/07/14 05:41:48;;;;;;;85.43;7.30;;;18.30;73.10;;;19.11;52.70;95514.25;5044476;28;20829;-58
2022/07/14 05:44:15;;;;;;;21.73;2.97;;;18.50;72.60;;;19.31;52.08;95510.09;5044816;28;20510;-62
2022/07/14 05:46:43;;;;;;;5.80;2.60;;;18.70;72.70;;;19.51;51.65;95499.78;5043812;28;20482;-61
2022/07/14 05:49:10;;;;;;;2.20;2.00;;;18.90;72.10;;;19.71;51.82;95502.78;5044634;28;20533;-61
2022/07/14 05:51:37;;;;;;;15.20;2.90;;;19.10;71.80;;;19.91;51.03;95502.28;5044976;28;20471;-60
2022/07/14 05:54:04;;;;;;;5.23;3.23;;;19.30;70.90;;;20.08;50.94;95502.97;5044122;28;20824;-61
2022/07/14 05:56:33;;;;;;;7.00;2.87;;;19.50;70.50;;;20.26;50.97;95507.91;5044335;28;20530;-61
2022/07/14 05:59:00;;;;;;;15.93;2.53;;;19.70;70.80;;;20.48;50.75;95499.97;5044738;28;20464;-61
2022/07/14 06:01:27;;;;;;;8.57;2.70;;;19.80;70.40;;;20.68;50.41;95495.75;5044814;28;20471;-59
2022/07/14 06:03:57;;;;;;;3.07;2.33;;;20.10;70.30;;;20.87;50.11;95501.53;5044472;28;21102;-60
2022/07/14 06:06:25;;;;;;;10.90;2.80;;;20.30;69.60;;;21.03;49.98;95487.91;5044945;28;21108;-59
2022/07/14 06:08:52;;;;;;;12.20;2.50;;;20.40;69.30;;;21.13;49.33;95482.25;5044805;28;20498;-60
2022/07/14 06:11:19;;;;;;;5.23;2.57;;;20.50;68.90;;;21.28;49.72;95484.88;5044964;28;20506;-61
2022/07/14 06:13:48;;;;;;;5.00;2.97;;;20.70;68.90;;;21.45;49.13;95490.78;5044313;28;20452;-61
2022/07/14 06:16:15;;;;;;;11.53;3.00;;;20.80;68.40;;;21.60;49.40;95483.53;5044587;28;20467;-57
2022/07/14 06:18:43;;;;;;;8.83;2.57;;;21.00;68.60;;;21.80;48.96;95477.53;5044520;28;21038;-61
2022/07/14 06:21:10;;;;;;;5.53;2.60;;;21.10;67.90;;;22.00;48.39;95483.03;5045096;28;20476;-60
2022/07/14 06:23:37;;;;;;;15.13;2.73;;;21.30;67.80;;;22.17;48.67;95476.31;5045294;28;20521;-59
2022/07/14 06:26:10;;;;;;;9.50;2.93;;;21.50;67.50;;;22.42;47.83;95483.06;5062337;28;20674;-60
2022/07/14 06:28:37;;;;;;;8.63;3.00;;;21.80;66.40;;;22.61;47.64;95489.56;5048553;28;20487;-60
2022/07/14 06:31:06;;;;;;;17.10;3.43;;;21.90;65.40;;;22.79;47.16;95484.47;5047901;28;20999;-62
2022/07/14 06:33:33;;;;;;;8.03;2.70;;;22.10;65.50;;;22.99;46.90;95486.38;5047535;28;20454;-60
2022/07/14 06:36:01;;;;;;;3.80;2.73;;;22.30;65.40;;;23.17;46.60;95478.59;5047878;28;20471;-58
2022/07/14 06:38:28;;;;;;;8.93;2.80;;;22.50;64.90;;;23.38;46.60;95487.53;5047879;28;20456;-58
2022/07/14 06:40:55;;;;;;;8.73;2.90;;;22.70;64.70;;;23.58;45.34;95479.50;5047618;28;21008;-60
2022/07/14 06:43:23;;;;;;;11.10;2.10;;;22.90;63.00;;;23.75;45.09;95478.03;5048028;28;20471;-58
2022/07/14 06:45:50;;;;;;;13.70;2.57;;;23.10;61.70;;;23.93;44.69;95484.66;5046596;28;20469;-60
2022/07/14 06:48:19;;;;;;;7.83;2.20;;;23.20;62.10;;;24.11;44.36;95487.53;5047975;28;20487;-60
2022/07/14 06:50:46;;;;;;;7.37;2.37;;;23.40;61.50;;;24.31;44.43;95473.25;5047398;28;20508;-60
2022/07/14 06:53:14;;;;;;;3.23;1.90;;;23.60;60.30;;;24.50;43.44;95476.91;5048651;28;20452;-60
2022/07/14 06:55:41;;;;;;;2.30;1.70;;;23.80;60.10;;;24.69;43.79;95470.66;5045223;28;20551;-60
2022/07/14 06:58:08;;;;;;;5.07;2.10;;;24.00;59.80;;;24.87;42.31;95472.63;5047969;28;20501;-61
2022/07/14 07:00:36;;;;;;;10.30;2.30;;;24.10;58.70;;;25.03;42.54;95474.00;5047668;28;20480;-60
2022/07/14 07:03:10;;;;;;;11.20;2.90;;;24.30;58.10;;;25.14;41.14;95466.28;5046629;28;20556;-61
2022/07/14 07:08:23;;;;;;;2.30;1.50;;;24.50;57.60;;;25.39;42.06;95463.66;5033202;28;20486;-58
2022/07/14 07:10:50;;;;;;;5.47;1.53;;;24.70;57.80;;;25.54;41.68;95469.56;5048670;28;20554;-60
2022/07/14 07:13:18;;;;;;;1.70;1.60;;;24.80;57.40;;;25.66;41.06;95468.88;5049911;28;20530;-59
2022/07/14 07:15:45;;;;;;;1.20;1.10;;;24.90;57.20;;;25.79;41.45;95470.63;5047636;28;20841;-61
2022/07/14 07:18:12;;;;;;;4.90;2.17;;;25.10;57.00;;;25.93;41.03;95469.44;5048353;28;20847;-60
2022/07/14 07:20:41;;;;;;;9.10;1.70;;;25.20;56.60;;;26.06;40.58;95461.28;5047801;28;20517;-60
2022/07/14 07:23:08;;;;;;;7.80;2.13;;;25.30;56.10;;;26.19;40.71;95465.69;5047541;28;20517;-60
2022/07/14 07:25:35;;;;;;;3.07;1.40;;;25.50;55.90;;;26.31;39.92;95460.41;5046456;28;20483;-61
2022/07/14 07:28:03;;;;;;;3.77;1.73;;;25.60;55.60;;;26.45;39.46;95467.28;5047786;28;20514;-58
2022/07/14 07:30:30;;;;;;;2.83;1.67;;;25.70;54.70;;;26.57;38.88;95458.44;5046935;28;20480;-58
2022/07/14 07:32:57;;;;;;;3.47;1.40;;;25.80;53.80;;;26.68;39.37;95460.44;5045373;28;20800;-61
2022/07/14 07:35:25;;;;;;;5.57;1.97;;;26.00;54.10;;;26.82;39.36;95466.47;5046313;28;20463;-61
2022/07/14 07:37:53;;;;;;;4.17;1.80;;;26.10;54.40;;;26.90;39.14;95463.47;5046251;28;20455;-61
2022/07/14 07:40:20;;;;;;;23.13;2.37;;;26.20;54.10;;;26.92;39.01;95455.13;5045784;28;20447;-61
2022/07/14 07:42:48;;;;;;;6.83;1.50;;;26.30;54.00;;;26.99;39.35;95458.56;5046129;28;20959;-60
2022/07/14 07:45:16;;;;;;;9.23;1.40;;;26.30;54.00;;;27.05;39.17;95452.25;5046458;28;20520;-62
2022/07/14 07:47:43;;;;;;;3.77;1.20;;;26.30;54.00;;;27.15;39.04;95452.50;5044044;28;20463;-60
2022/07/14 07:50:11;;;;;;;4.30;1.30;;;26.40;54.10;;;27.29;38.83;95447.75;5046696;28;20459;-61
2022/07/14 07:52:38;;;;;;;5.80;1.73;;;26.50;53.70;;;27.45;38.69;95446.31;5046713;28;20451;-60
2022/07/14 07:55:10;;;;;;;8.03;1.50;;;26.70;53.50;;;27.62;38.34;95443.75;5045891;28;20469;-58
2022/07/14 07:57:37;;;;;;;12.73;1.50;;;26.80;53.40;;;27.74;38.28;95435.63;5046086;28;20968;-60
2022/07/14 08:00:06;;;;;;;7.83;2.90;;;27.00;53.10;;;27.84;38.21;95429.63;5046310;28;20456;-60
2022/07/14 08:02:33;;;;;;;6.90;1.77;;;27.10;52.90;;;27.96;37.69;95432.38;5045331;28;20447;-60
2022/07/14 08:05:00;;;;;;;7.23;1.53;;;27.20;52.20;;;28.02;37.02;95429.56;5046319;28;20455;-60
2022/07/14 08:07:28;;;;;;;1.70;1.07;;;27.30;51.30;;;28.04;36.68;95426.63;5046298;28;20455;-60
2022/07/14 08:09:55;;;;;;;1.60;1.33;;;27.30;50.80;;;28.11;36.93;95424.63;5045505;28;20552;-57
2022/07/14 08:12:24;;;;;;;7.73;1.53;;;27.30;50.70;;;28.26;36.43;95416.03;5044116;28;20466;-60
2022/07/14 08:14:52;;;;;;;7.23;1.37;;;27.50;50.60;;;28.43;36.36;95424.22;5046039;28;20550;-59
2022/07/14 08:17:22;;;;;;;7.10;1.50;;;27.60;50.20;;;28.46;35.52;95415.63;5046606;28;20969;-59
2022/07/14 08:19:49;;;;;;;2.27;1.50;;;27.70;49.40;;;28.41;35.33;95424.47;5046292;28;20459;-59
2022/07/14 08:22:23;;;;;;;7.90;1.57;;;27.70;49.40;;;28.34;35.25;95422.94;5045629;28;20983;-60
2022/07/14 08:24:50;;;;;;;8.43;1.10;;;27.60;49.00;;;28.38;35.14;95424.09;5044465;28;20451;-60
2022/07/14 08:27:17;;;;;;;6.87;1.40;;;27.70;48.90;;;28.43;35.22;95416.94;5045856;28;20479;-61
2022/07/14 08:29:46;;;;;;;4.67;1.53;;;27.70;48.70;;;28.54;35.25;95417.97;5045362;28;20494;-59
2022/07/14 08:32:13;;;;;;;3.67;1.80;;;27.80;48.90;;;28.69;35.34;95420.19;5044823;28;21002;-59
2022/07/14 08:34:40;;;;;;;4.60;1.60;;;28.00;48.80;;;28.82;35.01;95416.38;5045700;28;20469;-60
2022/07/14 08:37:08;;;;;;;1.20;1.10;;;28.10;48.40;;;28.92;35.08;95408.44;5045907;28;20482;-61
2022/07/14 08:39:35;;;;;;;1.97;1.30;;;28.20;48.30;;;29.09;35.00;95402.22;5045933;28;20458;-58
2022/07/14 08:42:03;;;;;;;2.33;1.73;;;28.30;48.20;;;29.32;34.60;95396.69;5042976;28;20546;-61
2022/07/14 08:44:30;;;;;;;3.63;1.37;;;28.50;48.00;;;29.56;34.62;95407.41;5045151;28;20459;-60
2022/07/14 08:46:59;;;;;;;4.20;1.20;;;28.80;48.20;;;29.79;33.99;95405.56;5044714;28;20467;-61
2022/07/14 08:49:26;;;;;;;9.00;1.50;;;29.00;47.70;;;30.01;34.43;95395.66;5044581;28;20491;-59
2022/07/14 08:51:54;;;;;;;3.90;1.50;;;29.20;47.20;;;30.27;33.92;95398.72;5045521;28;20521;-61
2022/07/14 08:54:21;;;;;;;4.53;1.20;;;29.40;46.60;;;30.48;33.70;95390.84;5045366;28;20451;-60
2022/07/14 08:56:48;;;;;;;8.33;1.27;;;29.70;46.50;;;30.67;31.55;95394.88;5045509;28;20623;-60
2022/07/14 08:59:15;;;;;;;9.30;1.40;;;29.90;43.80;;;30.75;32.19;95399.03;5045478;28;20451;-60
2022/07/14 09:01:45;;;;;;;15.13;1.60;;;30.00;44.80;;;30.82;32.25;95390.72;5044664;28;20475;-59
2022/07/14 09:04:14;;;;;;;11.93;2.03;;;30.10;44.30;;;30.84;31.37;95391.25;5045291;28;20473;-60
2022/07/14 09:06:52;;;;;;;8.80;1.33;;;30.10;43.60;;;30.87;31.97;95388.84;5042459;28;20471;-61
2022/07/14 09:09:21;;;;;;;5.53;1.50;;;30.10;43.90;;;30.89;31.77;95392.16;5045766;28;20229;-59
2022/07/14 09:11:57;;;;;;;6.00;1.17;;;30.20;43.60;;;30.97;30.84;95380.03;5045358;28;20220;-62
2022/07/14 09:14:25;;;;;;;5.77;1.20;;;30.20;43.00;;;31.04;31.51;95377.91;5042845;28;20208;-58
2022/07/14 09:16:53;;;;;;;5.23;1.20;;;30.30;43.70;;;31.11;30.70;95372.28;5045271;28;20220;-61
2022/07/14 09:19:22;;;;;;;3.20;1.10;;;30.40;42.90;;;31.20;31.29;95373.47;5045026;28;20224;-59
2022/07/14 09:21:55;;;;;;;4.37;1.30;;;30.50;42.90;;;31.18;30.76;95367.44;5044949;28;20648;-59
2022/07/14 09:24:23;;;;;;;4.90;1.10;;;30.50;42.60;;;31.12;31.09;95362.22;5045537;28;20201;-59
2022/07/14 09:26:51;;;;;;;3.80;1.23;;;30.40;42.50;;;31.14;31.05;95360.91;5045066;28;20689;-61
2022/07/14 09:29:20;;;;;;;2.53;1.33;;;30.40;42.70;;;31.13;30.02;95366.59;5045186;28;20254;-60
2022/07/14 09:31:48;;;;;;;9.13;1.33;;;30.40;42.10;;;31.15;30.79;95359.00;5045229;28;20309;-61
2022/07/14 09:34:28;;;;;;;4.40;1.10;;;30.40;42.20;;;31.22;30.20;95359.63;5045243;28;20215;-60
2022/07/14 09:37:14;;;;;;;1.40;0.93;;;30.50;41.80;;;31.34;29.21;95354.00;5043171;28;20252;-64
2022/07/14 09:39:54;;;;;;;1.30;1.20;;;30.60;41.60;;;31.49;29.65;95356.03;5042048;28;20204;-61
2022/07/14 09:42:21;;;;;;;2.03;1.00;;;30.70;41.70;;;31.62;30.11;95356.44;5044545;28;20225;-62
2022/07/14 09:44:49;;;;;;;12.70;1.40;;;30.80;41.70;;;31.72;29.52;95354.88;5044407;28;20201;-59
2022/07/14 09:47:16;;;;;;;1.73;1.00;;;30.90;40.90;;;31.68;29.42;95348.28;5042282;28;20212;-60
2022/07/14 09:49:45;;;;;;;2.80;1.33;;;30.90;40.70;;;31.69;29.86;95345.31;5042349;28;20235;-60
2022/07/14 09:52:12;;;;;;;6.67;1.50;;;31.00;40.90;;;31.66;29.23;95350.47;5044596;28;20232;-60
2022/07/14 09:54:47;;;;;;;4.70;1.00;;;30.90;40.70;;;31.58;28.93;95346.34;5045016;28;20670;-60
2022/07/14 09:57:26;;;;;;;1.40;1.30;;;30.90;39.90;;;31.49;29.64;95345.16;5044268;28;20430;-60
2022/07/14 09:59:57;;;;;;;2.47;1.50;;;30.80;40.40;;;31.37;29.54;95343.44;5047316;28;20201;-59
2022/07/14 10:02:26;;;;;;;2.63;1.10;;;30.70;40.40;;;31.25;29.09;95340.88;5046113;28;20274;-60
2022/07/14 10:04:58;;;;;;;3.90;1.00;;;30.60;39.80;;;31.09;29.12;95337.22;5048866;28;20292;-60
2022/07/14 10:07:25;;;;;;;3.47;1.40;;;30.50;39.70;;;30.99;29.43;95337.13;5049147;28;20489;-60
2022/07/14 10:10:04;;;;;;;5.27;1.27;;;30.40;40.20;;;31.00;28.80;95327.06;5047658;28;20712;-59
2022/07/14 10:12:31;;;;;;;6.20;1.80;;;30.30;40.10;;;31.03;29.11;95321.94;5045707;28;20197;-58
2022/07/14 10:15:02;;;;;;;1.37;1.27;;;30.30;40.60;;;31.09;29.00;95323.63;5048870;28;20209;-62
2022/07/14 10:17:30;;;;;;;4.90;1.60;;;30.40;39.60;;;31.12;28.77;95321.47;5048638;28;20193;-58
2022/07/14 10:19:58;;;;;;;4.53;1.20;;;30.40;39.70;;;31.15;29.32;95312.81;5048451;28;20219;-59
2022/07/14 10:22:26;;;;;;;1.10;1.00;;;30.40;40.30;;;31.20;28.77;95315.56;5044533;28;20233;-60
2022/07/14 10:24:53;;;;;;;3.03;1.20;;;30.50;40.00;;;31.27;29.02;95314.25;5048049;28;20204;-59
2022/07/14 10:27:20;;;;;;;3.33;1.00;;;30.60;39.70;;;31.31;29.32;95309.13;5048491;28;20267;-59
2022/07/14 10:29:51;;;;;;;1.10;1.00;;;30.60;40.30;;;31.32;28.38;95297.16;5048363;28;20228;-60